This is the latest recevied weather packets stored in our database for station/object EA1AHA-13. If no packets are shown the sender has not sent any weather packets the latest 10 day(s).
| Time | Temp. | Humidity | Pressure | Rain* | Wind** | Luminosity | Snow |
|---|---|---|---|---|---|---|---|
| 1777652189 | 17.78° C | 84% | 1016.1 hPa | 0 mm | - | - | - |
| 1777651566 | 18.33° C | 82% | 1016 hPa | 0 mm | - | - | - |
| 1777650990 | 18.33° C | 81% | 1016.3 hPa | 0 mm | - | - | - |
| 1777650366 | 18.33° C | 81% | 1016.3 hPa | 0 mm | - | - | - |
| 1777649790 | 18.89° C | 79% | 1016.1 hPa | 0 mm | - | - | - |
| 1777649166 | 18.89° C | 80% | 1016.3 hPa | 0 mm | - | - | - |
| 1777647966 | 18.89° C | 78% | 1016.4 hPa | 0 mm | - | - | - |
| 1777647390 | 18.89° C | 77% | 1016.4 hPa | 0 mm | - | - | - |
| 1777646766 | 20° C | 75% | 1016.5 hPa | 0 mm | - | - | - |
| 1777646190 | 18.89° C | 78% | 1016.7 hPa | 0 mm | - | - | - |
| 1777645565 | 18.89° C | 77% | 1016.4 hPa | 0 mm | - | - | - |
| 1777644989 | 18.89° C | 78% | 1016.7 hPa | 0 mm | - | - | - |
| 1777644365 | 18.89° C | 77% | 1016.7 hPa | 0 mm | - | - | - |
| 1777643789 | 18.89° C | 78% | 1016.8 hPa | 0 mm | - | - | - |
| 1777643165 | 18.89° C | 79% | 1017 hPa | 0 mm | - | - | - |
| 1777642589 | 19.44° C | 76% | 1017 hPa | 0 mm | - | - | - |
| 1777641965 | 19.44° C | 76% | 1017.1 hPa | 0 mm | - | - | - |
| 1777641390 | 18.89° C | 77% | 1017 hPa | 0 mm | - | - | - |
| 1777640765 | 18.89° C | 78% | 1017 hPa | 0 mm | - | - | - |
| 1777640190 | 19.44° C | 76% | 1016.9 hPa | 0 mm | - | - | - |
| 1777639566 | 18.89° C | 77% | 1017 hPa | 0 mm | - | - | - |
| 1777638990 | 18.89° C | 77% | 1017.1 hPa | 0 mm | - | - | - |
| 1777638365 | 18.89° C | 79% | 1017 hPa | 0 mm | - | - | - |
| 1777637790 | 18.89° C | 76% | 1016.9 hPa | 0 mm | - | - | - |
| 1777637165 | 18.33° C | 78% | 1017 hPa | 0 mm | - | - | - |
* Rain latest hour (hover to see other rain measurements)
** Current wind speed in m/s (hover to see current wind gust speed)